Time;durP1;ratioP1;P1;durP2;ratioP2;P2;SDS_P1;SDS_P2;PMS_P1;PMS_P2;Temp;Humidity;BMP_temperature;BMP_pressure;BME280_temperature;BME280_humidity;BME280_pressure;Samples;Min_cycle;Max_cycle;Signal;HPM_P1;HPM_P2
2021/08/31 00:02:15;;;;;;;10.88;3.28;;;14.60;99.90;;;;;;5094163;28;20032;-76
2021/08/31 00:04:40;;;;;;;7.65;2.80;;;14.60;99.90;;;;;;5094185;28;20175;-76
2021/08/31 00:07:06;;;;;;;11.80;3.78;;;14.60;99.90;;;;;;5075956;28;20047;-76
2021/08/31 00:09:31;;;;;;;7.57;3.17;;;14.70;99.90;;;;;;5093849;28;20016;-75
2021/08/31 00:11:57;;;;;;;7.00;3.45;;;14.60;99.90;;;;;;5094294;28;20016;-76
2021/08/31 00:14:23;;;;;;;9.90;3.17;;;14.60;99.90;;;;;;5093977;28;20514;-76
2021/08/31 00:16:49;;;;;;;9.07;3.47;;;14.60;99.90;;;;;;5075663;28;20026;-76
2021/08/31 00:19:14;;;;;;;7.35;3.22;;;14.60;99.90;;;;;;5093893;28;20060;-76
2021/08/31 00:21:40;;;;;;;11.35;3.38;;;14.50;99.90;;;;;;5075567;28;20031;-76
2021/08/31 00:24:06;;;;;;;7.35;3.28;;;14.50;99.90;;;;;;5094338;28;20065;-77
2021/08/31 00:26:32;;;;;;;7.72;2.95;;;14.50;99.90;;;;;;5093667;28;20419;-77
2021/08/31 00:28:57;;;;;;;9.88;3.70;;;14.40;99.90;;;;;;5075671;28;20028;-77
2021/08/31 00:31:23;;;;;;;11.15;3.60;;;14.40;99.90;;;;;;5094252;28;20024;-77
2021/08/31 00:33:48;;;;;;;9.43;3.20;;;14.30;99.90;;;;;;5093530;28;20493;-76
2021/08/31 00:36:14;;;;;;;12.93;4.53;;;14.30;99.90;;;;;;5093597;28;20384;-76
2021/08/31 00:38:39;;;;;;;11.07;3.90;;;14.30;99.90;;;;;;5094078;28;20461;-76
2021/08/31 00:41:05;;;;;;;8.10;3.42;;;14.30;99.90;;;;;;5075524;28;20025;-77
2021/08/31 00:43:57;;;;;;;7.85;2.92;;;14.30;99.90;;;;;;5075598;28;20119;-77
2021/08/31 00:46:23;;;;;;;8.57;3.47;;;14.30;99.90;;;;;;5088826;28;20105;-77
2021/08/31 00:48:50;;;;;;;9.68;3.45;;;14.30;99.90;;;;;;5075217;28;20032;-75
2021/08/31 00:51:19;;;;;;;10.88;4.43;;;14.30;99.90;;;;;;5075247;28;20047;-75
2021/08/31 00:53:44;;;;;;;6.70;2.92;;;14.30;99.90;;;;;;5093263;28;20030;-75
2021/08/31 00:56:11;;;;;;;6.72;2.85;;;14.50;99.90;;;;;;5075265;28;20020;-75
2021/08/31 00:58:40;;;;;;;8.70;3.15;;;14.30;99.90;;;;;;5075237;28;20024;-76
2021/08/31 01:01:06;;;;;;;7.30;3.33;;;14.20;99.90;;;;;;5093780;28;20028;-75
2021/08/31 01:03:31;;;;;;;8.27;3.75;;;14.30;99.90;;;;;;5093160;28;20099;-76
2021/08/31 01:05:58;;;;;;;6.60;3.28;;;14.20;99.90;;;;;;5094099;28;20024;-75
2021/08/31 01:08:25;;;;;;;7.82;2.97;;;14.20;99.90;;;;;;5075711;28;20027;-76
2021/08/31 01:10:52;;;;;;;8.88;3.72;;;14.20;99.90;;;;;;5093223;28;20388;-76
2021/08/31 01:13:17;;;;;;;9.50;3.97;;;14.10;99.90;;;;;;5075250;28;20099;-77
2021/08/31 01:15:44;;;;;;;11.93;3.35;;;14.10;99.90;;;;;;5094123;28;20071;-76
2021/08/31 01:18:21;;;;;;;11.15;4.63;;;14.10;99.90;;;;;;5093057;28;20016;-76
2021/08/31 01:20:56;;;;;;;7.05;3.63;;;14.10;99.90;;;;;;5094115;28;20517;-77
2021/08/31 01:23:23;;;;;;;8.85;3.70;;;14.20;99.90;;;;;;5093960;28;20048;-77
2021/08/31 01:25:50;;;;;;;11.98;4.10;;;14.10;99.90;;;;;;5093396;28;20474;-77
2021/08/31 01:28:43;;;;;;;8.73;3.70;;;14.10;99.90;;;;;;5075353;28;20035;-77
2021/08/31 01:31:08;;;;;;;11.10;4.50;;;14.10;99.90;;;;;;5072388;28;20557;-77
2021/08/31 01:33:35;;;;;;;11.52;3.55;;;14.10;99.90;;;;;;5093275;28;20020;-76
2021/08/31 01:36:21;;;;;;;7.97;3.53;;;14.10;99.90;;;;;;5074873;28;20012;-77
2021/08/31 01:38:49;;;;;;;11.35;3.55;;;14.00;99.90;;;;;;5076815;28;20028;-76
2021/08/31 01:41:15;;;;;;;9.98;3.72;;;14.00;99.90;;;;;;5078701;28;20016;-75
2021/08/31 01:43:41;;;;;;;9.50;3.53;;;13.90;99.90;;;;;;5097105;28;20030;-77
2021/08/31 01:46:06;;;;;;;9.13;3.20;;;13.90;99.90;;;;;;5096968;28;20532;-77
2021/08/31 01:48:32;;;;;;;8.45;3.42;;;13.90;99.90;;;;;;5096943;28;20439;-77
2021/08/31 01:50:58;;;;;;;10.68;3.45;;;13.90;99.90;;;;;;5078530;28;20028;-77
2021/08/31 01:53:23;;;;;;;8.68;3.13;;;13.90;99.90;;;;;;5096450;28;20020;-77
2021/08/31 01:55:49;;;;;;;8.88;3.60;;;13.90;99.90;;;;;;5096832;28;20077;-77
2021/08/31 01:58:14;;;;;;;10.13;3.45;;;13.90;99.90;;;;;;5078465;28;20016;-75
2021/08/31 02:00:40;;;;;;;4.93;2.92;;;13.80;99.90;;;;;;5096555;28;20031;-75
2021/08/31 02:03:05;;;;;;;9.52;3.22;;;13.80;99.90;;;;;;5078284;28;20035;-76
2021/08/31 02:05:31;;;;;;;8.05;2.95;;;13.80;99.90;;;;;;5078187;28;20500;-76
2021/08/31 02:07:57;;;;;;;9.68;2.45;;;13.70;99.90;;;;;;5096317;28;20024;-76
2021/08/31 02:10:23;;;;;;;8.35;3.47;;;13.60;99.90;;;;;;5096212;28;20032;-76
2021/08/31 02:12:49;;;;;;;11.73;4.15;;;13.60;99.90;;;;;;5096562;28;20035;-77
2021/08/31 02:15:15;;;;;;;9.73;2.97;;;13.50;99.90;;;;;;5096831;28;20020;-76
2021/08/31 02:17:40;;;;;;;4.65;2.30;;;13.50;99.90;;;;;;5096207;28;20437;-76
2021/08/31 02:20:09;;;;;;;10.13;3.38;;;13.40;99.90;;;;;;5096095;28;20044;-76
2021/08/31 02:22:35;;;;;;;5.57;2.88;;;13.40;99.90;;;;;;5096015;28;20555;-76
2021/08/31 02:25:01;;;;;;;5.75;2.95;;;13.40;99.90;;;;;;5096335;28;20023;-75
2021/08/31 02:27:30;;;;;;;8.05;2.65;;;13.30;99.90;;;;;;5095972;28;20020;-76
2021/08/31 02:29:56;;;;;;;7.00;2.90;;;13.30;99.90;;;;;;5095897;28;20039;-75
2021/08/31 02:32:21;;;;;;;7.68;2.47;;;13.30;99.90;;;;;;5095749;28;20544;-76
2021/08/31 02:34:47;;;;;;;6.30;2.72;;;13.20;99.90;;;;;;5078013;28;20012;-75
2021/08/31 02:37:12;;;;;;;7.05;2.78;;;13.20;99.90;;;;;;5095742;28;20529;-75
2021/08/31 02:39:38;;;;;;;7.57;2.88;;;13.20;99.90;;;;;;5095604;28;20024;-76
2021/08/31 02:42:04;;;;;;;4.85;2.15;;;13.10;99.90;;;;;;5095752;28;20097;-77
2021/08/31 02:44:30;;;;;;;7.78;2.42;;;13.10;99.90;;;;;;5095750;28;20081;-77
2021/08/31 02:46:55;;;;;;;6.78;2.70;;;13.10;99.90;;;;;;5095673;28;20047;-76
2021/08/31 02:49:21;;;;;;;5.32;2.70;;;13.00;99.90;;;;;;5077307;28;20358;-76
2021/08/31 02:51:46;;;;;;;6.80;2.20;;;13.00;99.90;;;;;;5077441;28;20016;-76
2021/08/31 02:54:12;;;;;;;6.22;2.50;;;13.00;99.90;;;;;;5077259;28;20024;-76
2021/08/31 02:56:37;;;;;;;5.38;2.25;;;13.00;99.90;;;;;;5077279;28;20028;-76
2021/08/31 02:59:03;;;;;;;5.93;3.03;;;13.00;99.90;;;;;;5095426;28;20037;-76
2021/08/31 03:01:32;;;;;;;5.75;2.85;;;13.00;99.90;;;;;;5095715;28;20024;-76
2021/08/31 03:03:58;;;;;;;5.43;2.40;;;13.10;99.90;;;;;;5095221;28;20055;-76
2021/08/31 03:06:25;;;;;;;8.20;2.10;;;13.00;99.90;;;;;;5095158;28;20024;-76
2021/08/31 03:08:51;;;;;;;4.32;2.00;;;13.00;99.90;;;;;;5095187;28;20036;-77
2021/08/31 03:11:17;;;;;;;3.15;1.73;;;13.00;99.90;;;;;;5077089;28;20035;-77
2021/08/31 03:13:42;;;;;;;5.18;1.92;;;12.90;99.90;;;;;;5076851;28;20032;-77
2021/08/31 03:16:08;;;;;;;3.35;1.73;;;12.90;99.90;;;;;;5077039;28;20016;-77
2021/08/31 03:18:33;;;;;;;5.25;2.05;;;12.90;99.90;;;;;;5095051;28;20028;-76
2021/08/31 03:21:02;;;;;;;2.50;1.60;;;12.90;99.90;;;;;;5076874;28;20024;-76
2021/08/31 03:23:27;;;;;;;4.30;1.60;;;12.90;99.90;;;;;;5076635;28;20027;-76
2021/08/31 03:25:53;;;;;;;3.47;1.58;;;12.80;99.90;;;;;;5076640;28;20028;-76
2021/08/31 03:28:19;;;;;;;5.88;1.77;;;12.80;99.90;;;;;;5094827;28;20027;-75
2021/08/31 03:30:44;;;;;;;6.45;2.25;;;12.70;99.90;;;;;;5094779;28;20031;-75
2021/08/31 03:33:10;;;;;;;4.00;1.80;;;12.70;99.90;;;;;;5076397;28;20384;-75
2021/08/31 03:35:35;;;;;;;4.38;1.90;;;12.70;99.90;;;;;;5076493;28;20107;-75
2021/08/31 03:38:01;;;;;;;5.22;1.88;;;12.70;99.90;;;;;;5076628;28;20055;-76
2021/08/31 03:40:26;;;;;;;4.80;2.30;;;12.70;99.90;;;;;;5094581;28;20504;-75
2021/08/31 03:42:52;;;;;;;7.85;1.90;;;12.70;99.90;;;;;;5094552;28;20020;-76
2021/08/31 03:45:18;;;;;;;5.20;2.25;;;12.70;99.90;;;;;;5076310;28;20024;-76
2021/08/31 03:47:44;;;;;;;4.88;2.50;;;12.70;99.90;;;;;;5094393;28;20028;-75
2021/08/31 03:50:10;;;;;;;7.13;2.85;;;12.70;99.90;;;;;;5076312;28;20526;-74
2021/08/31 03:52:36;;;;;;;14.23;3.17;;;12.60;99.90;;;;;;5076355;28;20429;-74
2021/08/31 03:55:02;;;;;;;14.63;3.33;;;12.70;99.90;;;;;;5094319;28;20020;-74
2021/08/31 03:57:27;;;;;;;6.65;2.20;;;12.60;99.90;;;;;;5094260;28;20020;-74
2021/08/31 03:59:53;;;;;;;5.47;2.55;;;12.60;99.90;;;;;;5094556;28;20020;-77
2021/08/31 04:02:21;;;;;;;10.30;3.30;;;12.60;99.90;;;;;;5075535;28;20024;-77
2021/08/31 04:04:46;;;;;;;8.18;3.10;;;12.70;99.90;;;;;;5075864;28;20035;-76
2021/08/31 04:07:12;;;;;;;8.50;2.20;;;12.60;99.90;;;;;;5094061;28;20456;-76
2021/08/31 04:09:37;;;;;;;5.15;2.15;;;12.70;99.90;;;;;;5094136;28;20465;-77
2021/08/31 04:12:04;;;;;;;7.22;2.38;;;12.60;99.90;;;;;;5094571;28;20549;-76
2021/08/31 04:14:29;;;;;;;8.23;2.60;;;12.70;99.90;;;;;;5094453;28;20052;-75
2021/08/31 04:16:55;;;;;;;6.20;2.03;;;12.70;99.90;;;;;;5093848;28;20027;-75
2021/08/31 04:19:20;;;;;;;6.32;2.67;;;12.70;99.90;;;;;;5093800;28;20024;-75
2021/08/31 04:21:46;;;;;;;4.18;2.15;;;12.70;99.90;;;;;;5075795;28;20515;-77
2021/08/31 04:24:11;;;;;;;9.85;2.63;;;12.80;99.90;;;;;;5094093;28;20040;-77
2021/08/31 04:26:37;;;;;;;7.55;2.47;;;12.80;99.90;;;;;;5094020;28;20526;-75
2021/08/31 04:29:02;;;;;;;4.40;1.90;;;12.90;99.90;;;;;;5093732;28;20473;-77
2021/08/31 04:31:28;;;;;;;5.45;2.53;;;12.90;99.90;;;;;;5093786;28;20073;-76
2021/08/31 04:33:53;;;;;;;15.65;2.50;;;12.90;99.90;;;;;;5075527;28;20035;-75
2021/08/31 04:36:19;;;;;;;7.80;2.47;;;12.90;99.90;;;;;;5075555;28;20065;-74
2021/08/31 04:38:44;;;;;;;6.57;2.78;;;12.80;99.90;;;;;;5075583;28;20123;-75
2021/08/31 04:41:11;;;;;;;11.40;2.78;;;12.80;99.90;;;;;;5093830;28;20020;-77
2021/08/31 04:43:37;;;;;;;8.75;2.72;;;12.80;99.90;;;;;;5093624;28;20073;-77
2021/08/31 04:46:03;;;;;;;7.05;2.22;;;12.80;99.90;;;;;;5075537;28;20118;-75
2021/08/31 04:48:28;;;;;;;9.90;2.65;;;12.70;99.90;;;;;;5093375;28;20028;-76
2021/08/31 04:50:54;;;;;;;6.18;2.10;;;12.70;99.90;;;;;;5093775;28;20024;-76
2021/08/31 04:53:20;;;;;;;7.00;2.83;;;12.70;99.90;;;;;;5075449;28;20126;-76
2021/08/31 04:55:46;;;;;;;5.38;2.00;;;12.70;99.90;;;;;;5093704;28;20069;-76
2021/08/31 04:58:12;;;;;;;7.20;2.22;;;12.70;99.90;;;;;;5075275;28;20024;-77
2021/08/31 05:00:38;;;;;;;6.80;2.92;;;12.70;99.90;;;;;;5093399;28;20500;-76
2021/08/31 05:03:04;;;;;;;5.28;1.92;;;12.70;99.90;;;;;;5093395;28;20078;-76
2021/08/31 05:05:29;;;;;;;4.95;2.15;;;12.60;99.90;;;;;;5075173;28;20439;-76
2021/08/31 05:07:55;;;;;;;7.82;2.40;;;12.60;99.90;;;;;;5093348;28;20028;-76
2021/08/31 05:10:23;;;;;;;7.57;2.00;;;12.70;99.90;;;;;;5075240;28;20028;-76
2021/08/31 05:12:48;;;;;;;8.57;2.85;;;12.70;99.90;;;;;;5095465;28;20059;-77
2021/08/31 05:15:14;;;;;;;10.70;2.55;;;12.70;99.90;;;;;;5097877;28;20079;-77
2021/08/31 05:17:40;;;;;;;10.90;3.15;;;12.70;99.90;;;;;;5079274;28;20047;-76
2021/08/31 05:20:07;;;;;;;10.00;3.33;;;12.70;99.90;;;;;;5097711;28;20020;-75
2021/08/31 05:22:33;;;;;;;7.65;2.60;;;12.80;99.90;;;;;;5079125;28;20450;-75
2021/08/31 05:25:01;;;;;;;8.65;2.45;;;12.80;99.90;;;;;;5078993;28;20016;-75
2021/08/31 05:27:27;;;;;;;10.18;3.10;;;12.90;99.90;;;;;;5079019;28;20023;-74
2021/08/31 05:29:52;;;;;;;8.68;2.20;;;13.00;99.90;;;;;;5097173;28;20028;-75
2021/08/31 05:32:21;;;;;;;11.40;2.60;;;13.00;99.90;;;;;;5097571;28;20443;-75
2021/08/31 05:34:47;;;;;;;5.30;2.10;;;13.00;99.90;;;;;;5078773;28;20418;-75
2021/08/31 05:37:13;;;;;;;9.90;2.47;;;13.00;99.90;;;;;;5096933;28;20012;-75
2021/08/31 05:39:39;;;;;;;5.80;2.50;;;13.00;99.90;;;;;;5078692;28;20030;-75
2021/08/31 05:42:07;;;;;;;6.93;2.90;;;13.10;99.90;;;;;;5096877;28;20111;-75
2021/08/31 05:44:34;;;;;;;7.82;2.33;;;13.10;99.90;;;;;;5096786;28;20024;-75
2021/08/31 05:47:00;;;;;;;8.40;3.20;;;13.20;99.90;;;;;;5096688;28;20115;-76
2021/08/31 05:49:29;;;;;;;4.78;1.95;;;13.30;99.90;;;;;;5097674;28;20052;-76
2021/08/31 05:51:55;;;;;;;13.00;2.60;;;13.40;99.90;;;;;;5096599;28;20031;-76
2021/08/31 05:54:20;;;;;;;11.60;3.20;;;13.50;99.90;;;;;;5078370;28;20027;-76
2021/08/31 05:56:47;;;;;;;9.80;1.80;;;13.50;99.90;;;;;;5096781;28;20057;-77
2021/08/31 05:59:14;;;;;;;4.93;2.08;;;13.60;99.90;;;;;;5096551;28;20434;-77
2021/08/31 06:01:40;;;;;;;9.02;2.67;;;13.70;99.90;;;;;;5096823;28;20024;-76
2021/08/31 06:04:06;;;;;;;12.02;3.53;;;13.90;99.90;;;;;;5078126;28;20032;-76
2021/08/31 06:06:31;;;;;;;8.73;2.55;;;14.00;99.90;;;;;;5078309;28;20028;-76
2021/08/31 06:08:57;;;;;;;7.47;1.77;;;14.00;99.90;;;;;;5078549;28;20020;-76
2021/08/31 06:11:22;;;;;;;11.15;2.75;;;14.00;99.90;;;;;;5096889;28;20042;-76
2021/08/31 06:13:48;;;;;;;6.57;2.85;;;14.10;99.90;;;;;;5077993;28;20021;-76
2021/08/31 06:16:14;;;;;;;11.00;2.75;;;14.10;99.90;;;;;;5096230;28;20016;-76
2021/08/31 06:18:39;;;;;;;9.20;3.33;;;14.10;99.90;;;;;;5096130;28;20099;-76
2021/08/31 06:21:05;;;;;;;11.52;2.45;;;14.20;99.90;;;;;;5096895;28;20022;-77
2021/08/31 06:23:31;;;;;;;7.78;2.10;;;14.20;99.90;;;;;;5095648;28;20394;-76
2021/08/31 06:25:57;;;;;;;8.80;2.90;;;14.20;99.90;;;;;;5077876;28;20016;-77
2021/08/31 06:28:22;;;;;;;10.73;2.55;;;14.40;99.90;;;;;;5078258;28;20020;-76
2021/08/31 06:30:48;;;;;;;12.45;2.58;;;14.30;99.90;;;;;;5095969;28;20032;-75
2021/08/31 06:33:13;;;;;;;10.27;2.58;;;14.40;99.90;;;;;;5096511;28;20024;-76
2021/08/31 06:35:39;;;;;;;9.07;2.72;;;14.40;99.90;;;;;;5095977;28;20016;-75
2021/08/31 06:38:04;;;;;;;6.55;1.80;;;14.60;99.90;;;;;;5077718;28;20111;-76
2021/08/31 06:40:30;;;;;;;9.23;2.13;;;14.70;99.90;;;;;;5096220;28;20103;-76
2021/08/31 06:42:56;;;;;;;9.18;2.58;;;14.80;99.90;;;;;;5095714;28;20027;-76
2021/08/31 06:45:21;;;;;;;8.00;2.00;;;14.90;99.90;;;;;;5095572;28;20603;-77
2021/08/31 06:47:47;;;;;;;8.98;2.10;;;15.00;99.90;;;;;;5095392;28;20032;-77
2021/08/31 06:50:15;;;;;;;14.57;3.35;;;15.10;99.90;;;;;;5077715;28;20123;-75
2021/08/31 06:52:41;;;;;;;9.43;1.98;;;15.30;99.90;;;;;;5095203;28;20017;-75
2021/08/31 06:55:07;;;;;;;7.32;2.88;;;15.50;99.90;;;;;;5095129;28;20066;-74
2021/08/31 06:57:33;;;;;;;8.57;2.67;;;15.60;99.90;;;;;;5095271;28;20017;-78
2021/08/31 06:59:59;;;;;;;5.80;1.88;;;15.80;99.90;;;;;;5095867;28;20046;-76
2021/08/31 07:02:24;;;;;;;7.13;2.40;;;15.90;99.90;;;;;;5095893;28;20024;-75
2021/08/31 07:04:52;;;;;;;6.60;1.60;;;16.10;99.90;;;;;;5095435;28;20481;-74
2021/08/31 07:07:18;;;;;;;10.25;1.90;;;16.10;99.90;;;;;;5077641;28;20489;-74
2021/08/31 07:09:43;;;;;;;9.60;2.42;;;16.30;99.90;;;;;;5077703;28;20027;-76
2021/08/31 07:12:11;;;;;;;6.07;1.95;;;16.40;99.90;;;;;;5095887;28;20027;-75
2021/08/31 07:14:37;;;;;;;6.73;2.27;;;16.40;99.90;;;;;;5095387;28;20385;-75
2021/08/31 07:17:03;;;;;;;8.65;2.15;;;16.50;99.90;;;;;;5095028;28;20266;-76
2021/08/31 07:19:30;;;;;;;5.55;1.88;;;16.60;99.90;;;;;;5077500;28;20044;-78
2021/08/31 07:21:56;;;;;;;6.18;2.47;;;16.80;99.90;;;;;;5076928;28;20030;-76
2021/08/31 07:24:22;;;;;;;6.93;2.00;;;16.70;99.90;;;;;;5094867;28;20055;-76
2021/08/31 07:26:48;;;;;;;9.18;2.78;;;16.80;99.90;;;;;;5076978;28;20064;-76
2021/08/31 07:29:13;;;;;;;13.05;1.92;;;16.90;99.90;;;;;;5094793;28;20032;-75
2021/08/31 07:31:39;;;;;;;4.72;1.73;;;16.60;99.90;;;;;;5094829;28;20089;-76
2021/08/31 07:34:05;;;;;;;13.93;2.42;;;16.70;99.90;;;;;;5076633;28;20169;-75
2021/08/31 07:36:31;;;;;;;9.95;1.63;;;16.80;99.90;;;;;;5094382;28;20043;-77
2021/08/31 07:38:57;;;;;;;9.93;2.05;;;17.00;99.90;;;;;;5095534;28;20072;-76
2021/08/31 07:41:22;;;;;;;8.05;1.98;;;17.20;99.90;;;;;;5094863;28;20431;-75
2021/08/31 07:43:49;;;;;;;8.88;1.67;;;17.30;99.90;;;;;;5076523;28;20028;-76
2021/08/31 07:46:15;;;;;;;8.63;2.15;;;17.40;99.90;;;;;;5094629;28;20370;-76
2021/08/31 07:48:41;;;;;;;5.07;1.48;;;17.40;99.90;;;;;;5094599;28;20039;-77
2021/08/31 07:51:06;;;;;;;11.55;2.10;;;17.50;99.90;;;;;;5094720;28;20397;-77
2021/08/31 07:53:32;;;;;;;10.57;1.77;;;17.50;99.90;;;;;;5094772;28;20067;-75
2021/08/31 07:55:58;;;;;;;8.10;1.60;;;17.70;99.90;;;;;;5094436;28;20024;-74
2021/08/31 07:58:23;;;;;;;5.85;1.20;;;17.80;99.90;;;;;;5088699;22;20044;-78
2021/08/31 08:00:49;;;;;;;10.38;1.58;;;17.90;99.90;;;;;;5076297;28;20057;-76
2021/08/31 08:03:15;;;;;;;6.28;0.95;;;18.00;99.90;;;;;;5094664;28;20028;-74
2021/08/31 08:05:40;;;;;;;10.95;1.40;;;18.10;99.90;;;;;;5076251;28;20020;-75
2021/08/31 08:08:07;;;;;;;12.00;1.88;;;18.20;99.90;;;;;;5075939;28;20546;-76
2021/08/31 08:10:32;;;;;;;7.45;1.02;;;18.20;99.90;;;;;;5094567;28;20082;-77
2021/08/31 08:12:58;;;;;;;5.93;0.93;;;18.30;99.90;;;;;;5094523;28;20024;-77
2021/08/31 08:15:24;;;;;;;6.43;1.52;;;18.20;99.90;;;;;;5075906;28;20012;-75
2021/08/31 08:17:50;;;;;;;12.13;1.88;;;18.40;99.90;;;;;;5106366;22;20040;-75
2021/08/31 08:20:16;;;;;;;7.90;1.48;;;18.40;99.90;;;;;;5075808;28;20016;-74
2021/08/31 08:22:42;;;;;;;7.82;1.30;;;18.60;99.90;;;;;;5094441;28;20035;-76
2021/08/31 08:25:08;;;;;;;6.55;1.65;;;18.70;99.90;;;;;;5093762;28;20465;-76
2021/08/31 08:27:34;;;;;;;10.70;1.67;;;18.80;99.90;;;;;;5075640;28;20031;-75
2021/08/31 08:30:00;;;;;;;4.45;1.02;;;18.80;99.90;;;;;;5075686;28;20107;-75
2021/08/31 08:32:26;;;;;;;9.57;1.48;;;18.90;99.90;;;;;;5075586;28;20020;-73
2021/08/31 08:34:51;;;;;;;7.50;0.80;;;18.90;99.90;;;;;;5093702;28;20026;-74
2021/08/31 08:37:17;;;;;;;10.07;1.60;;;18.90;99.90;;;;;;5109992;23;20040;-74
2021/08/31 08:39:43;;;;;;;10.90;1.42;;;18.80;99.90;;;;;;5093722;28;20032;-73
2021/08/31 08:42:09;;;;;;;7.00;1.13;;;18.70;99.90;;;;;;5093759;28;20095;-77
2021/08/31 08:44:35;;;;;;;6.97;2.03;;;18.60;99.90;;;;;;5094055;28;20477;-79
2021/08/31 08:47:01;;;;;;;7.63;1.40;;;18.60;99.90;;;;;;5075399;28;20031;-74
2021/08/31 08:49:27;;;;;;;11.82;1.05;;;18.70;99.90;;;;;;5106198;22;20040;-73
2021/08/31 08:51:54;;;;;;;8.27;1.40;;;18.80;99.90;;;;;;5087134;22;20040;-75
2021/08/31 08:54:20;;;;;;;8.00;1.63;;;18.80;99.90;;;;;;5075452;28;20028;-73
2021/08/31 08:56:46;;;;;;;6.90;1.15;;;18.80;99.90;;;;;;5110871;22;20044;-74
2021/08/31 08:59:11;;;;;;;6.10;0.95;;;18.80;99.90;;;;;;5093531;28;20027;-74
2021/08/31 09:01:48;;;;;;;4.13;1.17;;;18.90;99.90;;;;;;5093626;28;20016;-75
2021/08/31 09:04:17;;;;;;;8.80;1.08;;;18.90;99.90;;;;;;5093890;28;20034;-74
2021/08/31 09:06:43;;;;;;;3.90;1.00;;;19.00;99.90;;;;;;5075386;28;20078;-73
2021/08/31 09:09:09;;;;;;;4.70;1.25;;;19.10;99.90;;;;;;5075459;28;20088;-75
2021/08/31 09:11:40;;;;;;;5.25;0.73;;;19.20;99.90;;;;;;5075301;28;20036;-76
2021/08/31 09:14:18;;;;;;;9.85;1.05;;;19.20;99.90;;;;;;5086568;23;20040;-74
2021/08/31 09:19:31;;;;;;;7.20;0.93;;;19.40;99.90;;;;;;5051613;28;20088;-73
2021/08/31 09:22:29;;;;;;;4.53;1.20;;;19.40;99.90;;;;;;5035317;28;20074;-73
2021/08/31 09:24:56;;;;;;;6.43;0.93;;;19.50;99.90;;;;;;5008663;28;20049;-73
2021/08/31 09:27:35;;;;;;;4.22;1.13;;;19.70;99.90;;;;;;5053064;28;20450;-74
2021/08/31 09:30:13;;;;;;;;;;;19.70;99.90;;;;;;5053246;28;20037;-74
2021/08/31 09:32:39;;;;;;;7.80;1.55;;;20.00;99.90;;;;;;5052712;28;19912;-74
2021/08/31 09:35:15;;;;;;;4.32;0.90;;;20.30;99.90;;;;;;5052966;28;20031;-75
2021/08/31 09:37:45;;;;;;;3.60;0.73;;;20.40;99.90;;;;;;5053565;28;20127;-74
2021/08/31 09:40:14;;;;;;;6.57;0.85;;;20.40;99.90;;;;;;5052984;28;20062;-74
2021/08/31 09:43:04;;;;;;;4.55;0.80;;;20.40;99.90;;;;;;5053034;28;20040;-74
2021/08/31 09:45:35;;;;;;;5.60;0.73;;;20.40;99.90;;;;;;5035141;28;20059;-75
2021/08/31 09:48:03;;;;;;;5.68;0.93;;;20.20;99.90;;;;;;5052966;28;20040;-74
2021/08/31 09:50:35;;;;;;;5.60;1.15;;;20.00;99.90;;;;;;5053120;28;20029;-76
2021/08/31 09:53:03;;;;;;;4.85;1.08;;;20.00;99.90;;;;;;5034710;28;20162;-76
2021/08/31 09:55:29;;;;;;;8.77;1.05;;;20.00;99.90;;;;;;5035151;28;20017;-74
2021/08/31 09:58:07;;;;;;;6.72;1.48;;;20.10;99.90;;;;;;5035131;28;20033;-74
2021/08/31 10:00:32;;;;;;;5.28;0.70;;;20.20;99.90;;;;;;5055815;28;20031;-74
2021/08/31 10:02:59;;;;;;;5.53;1.48;;;20.10;99.90;;;;;;5038768;28;20025;-74
2021/08/31 10:05:28;;;;;;;6.32;0.50;;;20.00;99.90;;;;;;5057071;28;20032;-74
2021/08/31 10:07:56;;;;;;;4.43;0.65;;;19.90;99.90;;;;;;5038324;28;20115;-74
2021/08/31 10:10:23;;;;;;;5.65;0.70;;;19.70;99.90;;;;;;5056292;28;20040;-74
2021/08/31 10:12:52;;;;;;;4.40;0.50;;;19.60;99.90;;;;;;5037911;28;20108;-74
2021/08/31 10:15:21;;;;;;;5.45;0.60;;;19.50;99.90;;;;;;5056293;28;20025;-74
2021/08/31 10:17:49;;;;;;;4.47;0.90;;;19.50;99.90;;;;;;5056124;28;20033;-73
2021/08/31 10:20:18;;;;;;;4.38;0.75;;;19.50;99.90;;;;;;5056031;28;20021;-74
2021/08/31 10:22:45;;;;;;;8.07;1.15;;;19.50;99.90;;;;;;5038208;28;20025;-73
2021/08/31 10:25:10;;;;;;;6.57;0.63;;;19.40;99.90;;;;;;5055715;28;20025;-74
2021/08/31 10:27:41;;;;;;;4.88;0.68;;;19.40;99.90;;;;;;5055877;28;20364;-73
2021/08/31 10:30:22;;;;;;;6.13;0.65;;;19.40;99.90;;;;;;5037790;28;20055;-73
2021/08/31 10:32:59;;;;;;;6.95;0.80;;;19.50;99.90;;;;;;5055977;28;20489;-76
2021/08/31 10:38:00;;;;;;;4.38;1.17;;;19.80;99.90;;;;;;5055946;28;20108;-73
2021/08/31 10:40:34;;;;;;;5.40;0.45;;;19.90;99.90;;;;;;5055616;28;20124;-75
2021/08/31 10:43:01;;;;;;;4.07;0.50;;;20.20;99.90;;;;;;5055610;28;20453;-74
2021/08/31 10:45:51;;;;;;;8.82;1.05;;;20.60;99.90;;;;;;5055235;28;20025;-73
2021/08/31 10:48:22;;;;;;;11.73;0.60;;;20.90;99.90;;;;;;5055525;28;20437;-73
2021/08/31 10:50:50;;;;;;;1.67;0.47;;;21.30;99.90;;;;;;5037644;28;20082;-74
2021/08/31 10:58:54;;;;;;;3.47;0.70;;;21.80;99.90;;;;;;5095887;28;20061;-74
2021/08/31 11:01:24;;;;;;;6.82;0.93;;;21.50;99.90;;;;;;5101566;22;20595;-74
2021/08/31 11:03:52;;;;;;;4.25;0.82;;;21.20;99.90;;;;;;5095692;28;20048;-74
2021/08/31 11:06:25;;;;;;;5.30;0.47;;;21.60;99.90;;;;;;5077308;28;20405;-74
2021/08/31 11:09:08;;;;;;;8.48;1.27;;;21.90;99.90;;;;;;5077389;28;20659;-73
2021/08/31 11:11:34;;;;;;;6.28;0.63;;;22.00;99.90;;;;;;5095363;28;20392;-75
2021/08/31 11:13:59;;;;;;;5.72;0.90;;;21.90;99.90;;;;;;5095340;28;20032;-74
2021/08/31 11:16:26;;;;;;;6.03;2.03;;;21.80;99.90;;;;;;5095770;28;20074;-72
2021/08/31 11:18:52;;;;;;;5.20;0.82;;;21.60;99.90;;;;;;5095398;28;20377;-76
2021/08/31 11:21:19;;;;;;;3.08;0.50;;;21.60;99.90;;;;;;5095200;28;20028;-74
2021/08/31 11:23:44;;;;;;;4.13;0.45;;;21.90;99.90;;;;;;5077089;28;20031;-74
2021/08/31 11:26:24;;;;;;;4.90;0.80;;;22.10;99.90;;;;;;5095479;28;20024;-74
2021/08/31 11:28:51;;;;;;;4.53;1.00;;;22.00;99.90;;;;;;5095823;28;20073;-75
2021/08/31 11:31:27;;;;;;;4.28;1.50;;;21.70;99.90;;;;;;5095693;28;20044;-77
2021/08/31 11:33:54;;;;;;;4.82;0.82;;;21.50;99.90;;;;;;5076770;28;20118;-74
2021/08/31 11:36:25;;;;;;;5.57;0.85;;;21.40;99.90;;;;;;5095098;28;20385;-75
2021/08/31 11:38:56;;;;;;;6.00;0.63;;;21.80;99.90;;;;;;5076605;28;20028;-75
2021/08/31 11:41:26;;;;;;;5.65;1.35;;;22.20;99.90;;;;;;5076714;28;20469;-75
2021/08/31 11:43:53;;;;;;;5.32;0.65;;;22.70;99.90;;;;;;5076791;28;20020;-76
2021/08/31 11:46:27;;;;;;;5.32;0.90;;;23.20;99.90;;;;;;5095530;28;20032;-74
2021/08/31 11:49:11;;;;;;;3.00;0.47;;;23.00;99.90;;;;;;5094836;28;20367;-76
2021/08/31 11:51:38;;;;;;;3.30;0.65;;;22.90;99.90;;;;;;5094479;28;20096;-74
2021/08/31 11:54:12;;;;;;;6.43;0.63;;;22.80;99.90;;;;;;5094651;28;20478;-76
2021/08/31 11:56:39;;;;;;;7.90;0.93;;;22.80;99.90;;;;;;5094339;28;20020;-77
2021/08/31 11:59:05;;;;;;;5.75;0.68;;;23.00;99.90;;;;;;5093973;28;20024;-76
2021/08/31 12:01:34;;;;;;;6.40;0.63;;;23.00;99.90;;;;;;5076036;28;20031;-76
2021/08/31 12:04:19;;;;;;;7.75;0.88;;;23.20;99.90;;;;;;5094418;28;20028;-76
2021/08/31 12:06:47;;;;;;;5.68;0.98;;;23.30;98.20;;;;;;5094675;28;20024;-76
2021/08/31 12:09:20;;;;;;;3.25;0.38;;;23.10;99.40;;;;;;5076347;28;20078;-76
2021/08/31 12:11:47;;;;;;;3.17;1.00;;;22.70;99.90;;;;;;5094977;28;20477;-74
2021/08/31 12:14:17;;;;;;;5.97;0.63;;;22.70;99.90;;;;;;5094963;28;20027;-76
2021/08/31 12:16:43;;;;;;;8.57;0.88;;;22.80;99.90;;;;;;5076594;28;20492;-73
2021/08/31 12:19:23;;;;;;;4.82;0.17;;;23.30;99.90;;;;;;5107469;22;20075;-74
2021/08/31 12:22:12;;;;;;;5.60;1.10;;;23.40;99.90;;;;;;5075562;28;20025;-76
2021/08/31 12:24:40;;;;;;;6.30;0.30;;;23.30;99.60;;;;;;5075879;28;20024;-74
2021/08/31 12:27:14;;;;;;;7.57;1.05;;;23.40;97.80;;;;;;5076683;28;20389;-75
2021/08/31 12:29:43;;;;;;;3.97;0.60;;;23.50;96.50;;;;;;5087774;23;20485;-74
2021/08/31 12:32:09;;;;;;;3.20;0.10;;;23.40;97.20;;;;;;5075827;28;20016;-74
2021/08/31 12:34:35;;;;;;;5.00;0.50;;;23.20;98.20;;;;;;5093933;28;20054;-74
2021/08/31 12:37:00;;;;;;;2.15;0.57;;;23.00;97.70;;;;;;5093821;28;20055;-74
2021/08/31 12:39:29;;;;;;;5.95;0.80;;;22.90;99.00;;;;;;5075720;28;20024;-74
2021/08/31 12:41:57;;;;;;;7.15;0.55;;;22.80;99.00;;;;;;5087221;22;20015;-74
2021/08/31 12:44:23;;;;;;;9.98;0.93;;;22.70;99.90;;;;;;5075584;28;20028;-75
2021/08/31 12:46:56;;;;;;;4.05;0.75;;;22.60;99.80;;;;;;5075630;28;20024;-75
2021/08/31 12:49:22;;;;;;;4.72;0.60;;;22.20;98.60;;;;;;5094417;28;20028;-75
2021/08/31 12:51:53;;;;;;;7.80;0.65;;;22.20;99.90;;;;;;5093443;28;20501;-74
2021/08/31 12:54:28;;;;;;;6.43;0.47;;;22.40;99.90;;;;;;5093263;28;20035;-74
2021/08/31 12:56:56;;;;;;;6.20;0.88;;;22.50;99.90;;;;;;5093631;28;20021;-77
2021/08/31 12:59:42;;;;;;;6.43;1.25;;;22.60;99.30;;;;;;5094070;28;20466;-75